sensor_id;sensor_type;location;lat;lon;timestamp;P1;durP1;ratioP1;P2;durP2;ratioP2
50737;SDS011;36703;48.154;17.126;2024-01-06T00:02:31;26.35;;;12.40;;
50737;SDS011;36703;48.154;17.126;2024-01-06T00:06:33;25.95;;;12.43;;
50737;SDS011;36703;48.154;17.126;2024-01-06T00:10:34;25.10;;;11.35;;
50737;SDS011;36703;48.154;17.126;2024-01-06T00:14:36;27.77;;;11.73;;
50737;SDS011;36703;48.154;17.126;2024-01-06T00:18:37;26.85;;;12.10;;
50737;SDS011;36703;48.154;17.126;2024-01-06T00:22:40;27.98;;;11.85;;
50737;SDS011;36703;48.154;17.126;2024-01-06T00:26:43;25.38;;;11.95;;
50737;SDS011;36703;48.154;17.126;2024-01-06T00:30:45;26.13;;;11.90;;
50737;SDS011;36703;48.154;17.126;2024-01-06T00:34:46;26.00;;;11.45;;
50737;SDS011;36703;48.154;17.126;2024-01-06T00:38:48;27.58;;;12.20;;
50737;SDS011;36703;48.154;17.126;2024-01-06T00:42:49;26.33;;;11.65;;
50737;SDS011;36703;48.154;17.126;2024-01-06T00:46:51;29.92;;;12.30;;
50737;SDS011;36703;48.154;17.126;2024-01-06T00:50:52;21.73;;;11.30;;
50737;SDS011;36703;48.154;17.126;2024-01-06T00:54:54;25.08;;;11.85;;
50737;SDS011;36703;48.154;17.126;2024-01-06T00:58:56;23.30;;;11.40;;
50737;SDS011;36703;48.154;17.126;2024-01-06T01:02:57;30.92;;;12.73;;
50737;SDS011;36703;48.154;17.126;2024-01-06T01:06:59;27.33;;;13.27;;
50737;SDS011;36703;48.154;17.126;2024-01-06T01:11:00;29.52;;;12.20;;
50737;SDS011;36703;48.154;17.126;2024-01-06T01:15:02;24.13;;;11.48;;
50737;SDS011;36703;48.154;17.126;2024-01-06T01:19:04;26.08;;;10.93;;
50737;SDS011;36703;48.154;17.126;2024-01-06T01:23:05;25.25;;;10.88;;
50737;SDS011;36703;48.154;17.126;2024-01-06T01:27:07;20.15;;;10.90;;
50737;SDS011;36703;48.154;17.126;2024-01-06T01:31:09;22.00;;;11.05;;
50737;SDS011;36703;48.154;17.126;2024-01-06T01:35:10;23.05;;;11.23;;
50737;SDS011;36703;48.154;17.126;2024-01-06T01:39:12;25.80;;;11.20;;
50737;SDS011;36703;48.154;17.126;2024-01-06T01:43:19;25.83;;;11.93;;
50737;SDS011;36703;48.154;17.126;2024-01-06T01:47:21;27.25;;;11.65;;
50737;SDS011;36703;48.154;17.126;2024-01-06T01:51:24;21.85;;;11.27;;
50737;SDS011;36703;48.154;17.126;2024-01-06T01:55:35;23.25;;;11.35;;
50737;SDS011;36703;48.154;17.126;2024-01-06T01:59:37;22.92;;;10.05;;
50737;SDS011;36703;48.154;17.126;2024-01-06T02:03:40;23.83;;;11.82;;
50737;SDS011;36703;48.154;17.126;2024-01-06T02:07:44;25.48;;;11.32;;
50737;SDS011;36703;48.154;17.126;2024-01-06T02:11:46;24.45;;;11.57;;
50737;SDS011;36703;48.154;17.126;2024-01-06T02:15:47;25.55;;;11.60;;
50737;SDS011;36703;48.154;17.126;2024-01-06T02:19:49;23.20;;;10.40;;
50737;SDS011;36703;48.154;17.126;2024-01-06T02:23:51;22.88;;;10.80;;
50737;SDS011;36703;48.154;17.126;2024-01-06T02:27:52;19.73;;;10.00;;
50737;SDS011;36703;48.154;17.126;2024-01-06T02:31:54;22.02;;;9.25;;
50737;SDS011;36703;48.154;17.126;2024-01-06T02:35:55;26.70;;;9.50;;
50737;SDS011;36703;48.154;17.126;2024-01-06T02:39:57;15.82;;;8.32;;
50737;SDS011;36703;48.154;17.126;2024-01-06T02:43:58;23.25;;;9.68;;
50737;SDS011;36703;48.154;17.126;2024-01-06T02:48:00;18.55;;;8.32;;
50737;SDS011;36703;48.154;17.126;2024-01-06T02:52:01;18.38;;;8.50;;
50737;SDS011;36703;48.154;17.126;2024-01-06T02:56:03;18.33;;;8.77;;
50737;SDS011;36703;48.154;17.126;2024-01-06T03:00:05;18.60;;;8.90;;
50737;SDS011;36703;48.154;17.126;2024-01-06T03:04:08;18.02;;;9.32;;
50737;SDS011;36703;48.154;17.126;2024-01-06T03:08:10;20.85;;;9.80;;
50737;SDS011;36703;48.154;17.126;2024-01-06T03:12:11;24.08;;;9.50;;
50737;SDS011;36703;48.154;17.126;2024-01-06T03:16:13;23.38;;;9.20;;
50737;SDS011;36703;48.154;17.126;2024-01-06T03:20:14;21.27;;;9.25;;
50737;SDS011;36703;48.154;17.126;2024-01-06T03:24:16;24.02;;;10.52;;
50737;SDS011;36703;48.154;17.126;2024-01-06T03:28:18;18.17;;;9.63;;
50737;SDS011;36703;48.154;17.126;2024-01-06T03:32:19;21.52;;;9.75;;
50737;SDS011;36703;48.154;17.126;2024-01-06T03:36:21;20.20;;;10.48;;
50737;SDS011;36703;48.154;17.126;2024-01-06T03:40:22;22.10;;;10.35;;
50737;SDS011;36703;48.154;17.126;2024-01-06T03:44:24;20.25;;;9.77;;
50737;SDS011;36703;48.154;17.126;2024-01-06T03:48:31;18.10;;;9.48;;
50737;SDS011;36703;48.154;17.126;2024-01-06T03:52:32;20.17;;;9.27;;
50737;SDS011;36703;48.154;17.126;2024-01-06T04:00:35;17.15;;;8.30;;
50737;SDS011;36703;48.154;17.126;2024-01-06T04:08:41;21.15;;;8.95;;
50737;SDS011;36703;48.154;17.126;2024-01-06T04:12:42;20.17;;;10.20;;
50737;SDS011;36703;48.154;17.126;2024-01-06T04:16:44;20.02;;;10.30;;
50737;SDS011;36703;48.154;17.126;2024-01-06T04:20:46;26.83;;;10.55;;
50737;SDS011;36703;48.154;17.126;2024-01-06T04:24:47;22.08;;;10.48;;
50737;SDS011;36703;48.154;17.126;2024-01-06T04:28:49;21.95;;;10.68;;
50737;SDS011;36703;48.154;17.126;2024-01-06T04:32:50;22.92;;;9.77;;
50737;SDS011;36703;48.154;17.126;2024-01-06T04:36:52;21.65;;;9.38;;
50737;SDS011;36703;48.154;17.126;2024-01-06T04:40:54;20.60;;;8.75;;
50737;SDS011;36703;48.154;17.126;2024-01-06T04:44:55;18.77;;;9.13;;
50737;SDS011;36703;48.154;17.126;2024-01-06T04:48:57;16.08;;;8.57;;
50737;SDS011;36703;48.154;17.126;2024-01-06T04:52:58;15.90;;;9.10;;
50737;SDS011;36703;48.154;17.126;2024-01-06T04:57:00;19.40;;;9.88;;
50737;SDS011;36703;48.154;17.126;2024-01-06T05:05:03;24.80;;;14.50;;
50737;SDS011;36703;48.154;17.126;2024-01-06T05:09:05;28.83;;;16.35;;
50737;SDS011;36703;48.154;17.126;2024-01-06T05:13:06;31.05;;;17.58;;
50737;SDS011;36703;48.154;17.126;2024-01-06T05:21:09;24.23;;;14.10;;
50737;SDS011;36703;48.154;17.126;2024-01-06T05:25:11;27.30;;;12.93;;
50737;SDS011;36703;48.154;17.126;2024-01-06T05:29:12;20.92;;;11.10;;
50737;SDS011;36703;48.154;17.126;2024-01-06T05:33:15;20.15;;;11.48;;
50737;SDS011;36703;48.154;17.126;2024-01-06T05:37:17;21.85;;;11.57;;
50737;SDS011;36703;48.154;17.126;2024-01-06T05:41:19;24.33;;;12.40;;
50737;SDS011;36703;48.154;17.126;2024-01-06T05:45:20;25.92;;;12.32;;
50737;SDS011;36703;48.154;17.126;2024-01-06T05:49:23;21.88;;;12.48;;
50737;SDS011;36703;48.154;17.126;2024-01-06T05:53:25;28.05;;;12.27;;
50737;SDS011;36703;48.154;17.126;2024-01-06T05:57:27;26.95;;;12.25;;
50737;SDS011;36703;48.154;17.126;2024-01-06T06:05:30;23.63;;;11.30;;
50737;SDS011;36703;48.154;17.126;2024-01-06T06:09:32;22.08;;;11.35;;
50737;SDS011;36703;48.154;17.126;2024-01-06T06:13:35;20.65;;;9.93;;
50737;SDS011;36703;48.154;17.126;2024-01-06T06:17:37;20.65;;;10.75;;
50737;SDS011;36703;48.154;17.126;2024-01-06T06:21:40;19.50;;;9.70;;
50737;SDS011;36703;48.154;17.126;2024-01-06T06:29:43;18.70;;;9.73;;
50737;SDS011;36703;48.154;17.126;2024-01-06T06:33:44;19.45;;;9.85;;
50737;SDS011;36703;48.154;17.126;2024-01-06T06:37:46;18.30;;;9.52;;
50737;SDS011;36703;48.154;17.126;2024-01-06T06:41:47;17.98;;;9.45;;
50737;SDS011;36703;48.154;17.126;2024-01-06T06:45:49;19.88;;;10.23;;
50737;SDS011;36703;48.154;17.126;2024-01-06T06:49:51;24.10;;;11.00;;
50737;SDS011;36703;48.154;17.126;2024-01-06T06:53:52;18.05;;;9.68;;
50737;SDS011;36703;48.154;17.126;2024-01-06T07:01:55;15.63;;;9.18;;
50737;SDS011;36703;48.154;17.126;2024-01-06T07:05:57;17.55;;;9.35;;
50737;SDS011;36703;48.154;17.126;2024-01-06T07:10:00;19.48;;;10.25;;
50737;SDS011;36703;48.154;17.126;2024-01-06T07:14:06;19.15;;;11.10;;
50737;SDS011;36703;48.154;17.126;2024-01-06T07:18:07;25.10;;;12.13;;
50737;SDS011;36703;48.154;17.126;2024-01-06T07:22:09;21.63;;;11.25;;
50737;SDS011;36703;48.154;17.126;2024-01-06T07:26:11;22.40;;;11.05;;
50737;SDS011;36703;48.154;17.126;2024-01-06T07:30:12;20.83;;;11.52;;
50737;SDS011;36703;48.154;17.126;2024-01-06T07:34:14;21.13;;;11.30;;
50737;SDS011;36703;48.154;17.126;2024-01-06T07:38:16;20.95;;;11.27;;
50737;SDS011;36703;48.154;17.126;2024-01-06T07:42:18;18.98;;;10.52;;
50737;SDS011;36703;48.154;17.126;2024-01-06T07:46:19;23.67;;;11.48;;
50737;SDS011;36703;48.154;17.126;2024-01-06T07:50:21;20.38;;;11.35;;
50737;SDS011;36703;48.154;17.126;2024-01-06T07:58:24;18.00;;;10.35;;
50737;SDS011;36703;48.154;17.126;2024-01-06T08:02:25;21.42;;;10.73;;
50737;SDS011;36703;48.154;17.126;2024-01-06T08:06:27;19.65;;;10.90;;
50737;SDS011;36703;48.154;17.126;2024-01-06T08:10:28;21.73;;;11.13;;
50737;SDS011;36703;48.154;17.126;2024-01-06T08:14:30;21.88;;;11.93;;
50737;SDS011;36703;48.154;17.126;2024-01-06T08:18:32;24.13;;;12.95;;
50737;SDS011;36703;48.154;17.126;2024-01-06T08:22:34;25.65;;;13.70;;
50737;SDS011;36703;48.154;17.126;2024-01-06T08:30:36;27.80;;;14.77;;
50737;SDS011;36703;48.154;17.126;2024-01-06T08:34:38;26.63;;;13.63;;
50737;SDS011;36703;48.154;17.126;2024-01-06T08:38:39;29.48;;;15.05;;
50737;SDS011;36703;48.154;17.126;2024-01-06T08:42:41;29.17;;;15.43;;
50737;SDS011;36703;48.154;17.126;2024-01-06T08:46:44;27.50;;;14.60;;
50737;SDS011;36703;48.154;17.126;2024-01-06T08:50:46;26.50;;;14.60;;
50737;SDS011;36703;48.154;17.126;2024-01-06T08:54:47;42.63;;;16.08;;
50737;SDS011;36703;48.154;17.126;2024-01-06T08:58:50;31.95;;;16.83;;
50737;SDS011;36703;48.154;17.126;2024-01-06T09:02:52;28.65;;;16.00;;
50737;SDS011;36703;48.154;17.126;2024-01-06T09:06:53;29.77;;;15.77;;
50737;SDS011;36703;48.154;17.126;2024-01-06T09:10:55;29.75;;;16.52;;
50737;SDS011;36703;48.154;17.126;2024-01-06T09:14:57;27.05;;;15.82;;
50737;SDS011;36703;48.154;17.126;2024-01-06T09:18:59;30.70;;;16.63;;
50737;SDS011;36703;48.154;17.126;2024-01-06T09:23:01;28.05;;;15.55;;
50737;SDS011;36703;48.154;17.126;2024-01-06T09:27:02;20.63;;;11.73;;
50737;SDS011;36703;48.154;17.126;2024-01-06T09:31:04;22.15;;;12.05;;
50737;SDS011;36703;48.154;17.126;2024-01-06T09:35:06;26.13;;;13.43;;
50737;SDS011;36703;48.154;17.126;2024-01-06T09:39:08;22.70;;;12.20;;
50737;SDS011;36703;48.154;17.126;2024-01-06T09:43:10;22.13;;;12.45;;
50737;SDS011;36703;48.154;17.126;2024-01-06T09:47:12;20.70;;;11.73;;
50737;SDS011;36703;48.154;17.126;2024-01-06T09:51:14;17.85;;;11.25;;
50737;SDS011;36703;48.154;17.126;2024-01-06T09:55:16;21.30;;;12.80;;
50737;SDS011;36703;48.154;17.126;2024-01-06T09:59:18;24.60;;;13.45;;
50737;SDS011;36703;48.154;17.126;2024-01-06T10:03:22;20.77;;;12.02;;
50737;SDS011;36703;48.154;17.126;2024-01-06T10:07:27;20.83;;;11.63;;
50737;SDS011;36703;48.154;17.126;2024-01-06T10:11:29;20.85;;;11.98;;
50737;SDS011;36703;48.154;17.126;2024-01-06T10:15:31;18.90;;;10.50;;
50737;SDS011;36703;48.154;17.126;2024-01-06T10:19:32;18.08;;;10.07;;
50737;SDS011;36703;48.154;17.126;2024-01-06T10:23:36;14.75;;;9.48;;
50737;SDS011;36703;48.154;17.126;2024-01-06T10:27:38;16.67;;;9.88;;
50737;SDS011;36703;48.154;17.126;2024-01-06T10:31:40;15.88;;;8.70;;
50737;SDS011;36703;48.154;17.126;2024-01-06T10:35:42;13.48;;;7.78;;
50737;SDS011;36703;48.154;17.126;2024-01-06T10:39:45;10.55;;;6.93;;
50737;SDS011;36703;48.154;17.126;2024-01-06T10:43:46;10.73;;;6.47;;
50737;SDS011;36703;48.154;17.126;2024-01-06T10:47:51;8.48;;;5.72;;
50737;SDS011;36703;48.154;17.126;2024-01-06T10:51:55;10.25;;;6.80;;
50737;SDS011;36703;48.154;17.126;2024-01-06T10:55:59;13.07;;;7.50;;
50737;SDS011;36703;48.154;17.126;2024-01-06T11:00:01;9.23;;;6.07;;
50737;SDS011;36703;48.154;17.126;2024-01-06T11:04:06;8.75;;;5.88;;
50737;SDS011;36703;48.154;17.126;2024-01-06T11:08:07;7.05;;;4.93;;
50737;SDS011;36703;48.154;17.126;2024-01-06T11:12:11;7.85;;;4.85;;
50737;SDS011;36703;48.154;17.126;2024-01-06T11:20:38;5.80;;;4.07;;
50737;SDS011;36703;48.154;17.126;2024-01-06T11:24:39;7.65;;;3.70;;
50737;SDS011;36703;48.154;17.126;2024-01-06T11:28:49;6.07;;;4.03;;
50737;SDS011;36703;48.154;17.126;2024-01-06T11:32:54;7.18;;;5.03;;
50737;SDS011;36703;48.154;17.126;2024-01-06T11:36:59;9.35;;;5.88;;
50737;SDS011;36703;48.154;17.126;2024-01-06T11:41:01;8.02;;;5.32;;
50737;SDS011;36703;48.154;17.126;2024-01-06T11:45:04;6.82;;;5.25;;
50737;SDS011;36703;48.154;17.126;2024-01-06T11:49:06;8.07;;;5.40;;
50737;SDS011;36703;48.154;17.126;2024-01-06T11:53:10;8.38;;;5.47;;
50737;SDS011;36703;48.154;17.126;2024-01-06T11:57:12;7.43;;;5.30;;
50737;SDS011;36703;48.154;17.126;2024-01-06T12:01:13;7.72;;;5.10;;
50737;SDS011;36703;48.154;17.126;2024-01-06T12:05:16;8.15;;;5.57;;
50737;SDS011;36703;48.154;17.126;2024-01-06T12:09:19;9.02;;;4.50;;
50737;SDS011;36703;48.154;17.126;2024-01-06T12:13:20;5.75;;;3.80;;
50737;SDS011;36703;48.154;17.126;2024-01-06T12:17:22;6.10;;;3.78;;
50737;SDS011;36703;48.154;17.126;2024-01-06T12:21:30;3.40;;;2.85;;
50737;SDS011;36703;48.154;17.126;2024-01-06T12:25:34;4.75;;;2.67;;
50737;SDS011;36703;48.154;17.126;2024-01-06T12:29:37;3.55;;;2.35;;
50737;SDS011;36703;48.154;17.126;2024-01-06T12:33:42;4.00;;;2.50;;
50737;SDS011;36703;48.154;17.126;2024-01-06T12:37:44;3.63;;;2.17;;
50737;SDS011;36703;48.154;17.126;2024-01-06T12:41:46;3.65;;;2.70;;
50737;SDS011;36703;48.154;17.126;2024-01-06T12:45:47;3.63;;;2.65;;
50737;SDS011;36703;48.154;17.126;2024-01-06T12:49:49;4.15;;;2.75;;
50737;SDS011;36703;48.154;17.126;2024-01-06T12:53:51;3.80;;;2.60;;
50737;SDS011;36703;48.154;17.126;2024-01-06T12:57:53;4.10;;;3.03;;
50737;SDS011;36703;48.154;17.126;2024-01-06T13:01:54;4.30;;;3.30;;
50737;SDS011;36703;48.154;17.126;2024-01-06T13:05:56;5.07;;;3.42;;
50737;SDS011;36703;48.154;17.126;2024-01-06T13:09:57;5.38;;;3.55;;
50737;SDS011;36703;48.154;17.126;2024-01-06T13:14:00;4.68;;;3.50;;
50737;SDS011;36703;48.154;17.126;2024-01-06T13:18:02;6.43;;;4.05;;
50737;SDS011;36703;48.154;17.126;2024-01-06T13:22:04;4.70;;;3.75;;
50737;SDS011;36703;48.154;17.126;2024-01-06T13:26:06;6.00;;;4.15;;
50737;SDS011;36703;48.154;17.126;2024-01-06T13:30:09;5.97;;;4.13;;
50737;SDS011;36703;48.154;17.126;2024-01-06T13:34:13;5.07;;;3.80;;
50737;SDS011;36703;48.154;17.126;2024-01-06T13:38:15;6.25;;;4.18;;
50737;SDS011;36703;48.154;17.126;2024-01-06T13:42:17;5.60;;;3.67;;
50737;SDS011;36703;48.154;17.126;2024-01-06T13:46:18;5.55;;;3.70;;
50737;SDS011;36703;48.154;17.126;2024-01-06T13:50:20;7.85;;;3.80;;
50737;SDS011;36703;48.154;17.126;2024-01-06T13:54:21;4.82;;;3.47;;
50737;SDS011;36703;48.154;17.126;2024-01-06T13:58:23;5.97;;;3.83;;
50737;SDS011;36703;48.154;17.126;2024-01-06T14:02:24;6.13;;;3.58;;
50737;SDS011;36703;48.154;17.126;2024-01-06T14:06:26;7.18;;;3.38;;
50737;SDS011;36703;48.154;17.126;2024-01-06T14:10:31;5.88;;;3.72;;
50737;SDS011;36703;48.154;17.126;2024-01-06T14:14:32;4.43;;;3.20;;
50737;SDS011;36703;48.154;17.126;2024-01-06T14:18:34;7.07;;;4.15;;
50737;SDS011;36703;48.154;17.126;2024-01-06T14:22:35;6.40;;;4.10;;
50737;SDS011;36703;48.154;17.126;2024-01-06T14:26:37;7.20;;;4.90;;
50737;SDS011;36703;48.154;17.126;2024-01-06T14:30:41;7.45;;;4.30;;
50737;SDS011;36703;48.154;17.126;2024-01-06T14:38:44;5.43;;;4.10;;
50737;SDS011;36703;48.154;17.126;2024-01-06T14:42:45;7.50;;;4.90;;
50737;SDS011;36703;48.154;17.126;2024-01-06T14:46:47;7.20;;;4.63;;
50737;SDS011;36703;48.154;17.126;2024-01-06T14:50:51;6.78;;;4.28;;
50737;SDS011;36703;48.154;17.126;2024-01-06T14:54:52;6.45;;;4.07;;
50737;SDS011;36703;48.154;17.126;2024-01-06T14:58:54;6.47;;;4.30;;
50737;SDS011;36703;48.154;17.126;2024-01-06T15:02:56;6.13;;;4.20;;
50737;SDS011;36703;48.154;17.126;2024-01-06T15:06:58;5.30;;;3.53;;
50737;SDS011;36703;48.154;17.126;2024-01-06T15:11:00;7.07;;;4.20;;
50737;SDS011;36703;48.154;17.126;2024-01-06T15:15:03;6.20;;;3.92;;
50737;SDS011;36703;48.154;17.126;2024-01-06T15:19:06;5.18;;;3.70;;
50737;SDS011;36703;48.154;17.126;2024-01-06T15:23:08;4.95;;;3.47;;
50737;SDS011;36703;48.154;17.126;2024-01-06T15:27:10;5.18;;;3.53;;
50737;SDS011;36703;48.154;17.126;2024-01-06T15:31:11;5.25;;;3.33;;
50737;SDS011;36703;48.154;17.126;2024-01-06T15:35:13;5.88;;;3.83;;
50737;SDS011;36703;48.154;17.126;2024-01-06T15:39:15;4.80;;;3.30;;
50737;SDS011;36703;48.154;17.126;2024-01-06T15:47:17;4.95;;;3.53;;
50737;SDS011;36703;48.154;17.126;2024-01-06T15:51:19;5.70;;;4.10;;
50737;SDS011;36703;48.154;17.126;2024-01-06T15:55:20;6.38;;;4.30;;
50737;SDS011;36703;48.154;17.126;2024-01-06T15:59:22;8.50;;;5.10;;
50737;SDS011;36703;48.154;17.126;2024-01-06T16:03:24;7.50;;;4.97;;
50737;SDS011;36703;48.154;17.126;2024-01-06T16:11:27;6.93;;;4.57;;
50737;SDS011;36703;48.154;17.126;2024-01-06T16:15:29;8.80;;;5.82;;
50737;SDS011;36703;48.154;17.126;2024-01-06T16:19:30;11.38;;;5.35;;
50737;SDS011;36703;48.154;17.126;2024-01-06T16:23:32;9.52;;;5.60;;
50737;SDS011;36703;48.154;17.126;2024-01-06T16:27:34;8.18;;;5.57;;
50737;SDS011;36703;48.154;17.126;2024-01-06T16:31:35;8.73;;;5.60;;
50737;SDS011;36703;48.154;17.126;2024-01-06T16:39:38;8.18;;;5.60;;
50737;SDS011;36703;48.154;17.126;2024-01-06T16:43:40;10.38;;;6.07;;
50737;SDS011;36703;48.154;17.126;2024-01-06T16:47:41;8.68;;;5.68;;
50737;SDS011;36703;48.154;17.126;2024-01-06T16:55:44;7.85;;;4.97;;
50737;SDS011;36703;48.154;17.126;2024-01-06T17:03:48;8.23;;;5.10;;
50737;SDS011;36703;48.154;17.126;2024-01-06T17:07:50;9.85;;;6.00;;
50737;SDS011;36703;48.154;17.126;2024-01-06T17:11:51;11.00;;;6.38;;
50737;SDS011;36703;48.154;17.126;2024-01-06T17:15:53;9.55;;;6.05;;
50737;SDS011;36703;48.154;17.126;2024-01-06T17:19:55;10.57;;;6.55;;
50737;SDS011;36703;48.154;17.126;2024-01-06T17:23:56;9.73;;;6.30;;
50737;SDS011;36703;48.154;17.126;2024-01-06T17:27:58;9.70;;;6.35;;
50737;SDS011;36703;48.154;17.126;2024-01-06T17:32:00;9.77;;;6.80;;
50737;SDS011;36703;48.154;17.126;2024-01-06T17:36:01;11.65;;;7.13;;
50737;SDS011;36703;48.154;17.126;2024-01-06T17:40:03;12.18;;;7.55;;
50737;SDS011;36703;48.154;17.126;2024-01-06T17:44:06;12.02;;;7.15;;
50737;SDS011;36703;48.154;17.126;2024-01-06T17:48:07;11.93;;;7.68;;
50737;SDS011;36703;48.154;17.126;2024-01-06T17:56:11;13.52;;;8.15;;
50737;SDS011;36703;48.154;17.126;2024-01-06T18:04:14;52.42;;;30.25;;
50737;SDS011;36703;48.154;17.126;2024-01-06T18:08:16;15.27;;;8.48;;
50737;SDS011;36703;48.154;17.126;2024-01-06T18:12:17;12.50;;;8.18;;
50737;SDS011;36703;48.154;17.126;2024-01-06T18:16:19;14.07;;;8.52;;
50737;SDS011;36703;48.154;17.126;2024-01-06T18:20:20;15.88;;;8.45;;
50737;SDS011;36703;48.154;17.126;2024-01-06T18:24:22;13.52;;;8.77;;
50737;SDS011;36703;48.154;17.126;2024-01-06T18:28:23;15.90;;;8.52;;
50737;SDS011;36703;48.154;17.126;2024-01-06T18:32:25;13.38;;;8.68;;
50737;SDS011;36703;48.154;17.126;2024-01-06T18:36:27;13.13;;;7.68;;
50737;SDS011;36703;48.154;17.126;2024-01-06T18:40:29;59.85;;;31.85;;
50737;SDS011;36703;48.154;17.126;2024-01-06T18:48:32;12.60;;;8.02;;
50737;SDS011;36703;48.154;17.126;2024-01-06T18:52:33;11.75;;;8.02;;
50737;SDS011;36703;48.154;17.126;2024-01-06T18:56:35;12.98;;;8.15;;
50737;SDS011;36703;48.154;17.126;2024-01-06T19:00:36;14.13;;;8.18;;
50737;SDS011;36703;48.154;17.126;2024-01-06T19:04:38;13.43;;;8.45;;
50737;SDS011;36703;48.154;17.126;2024-01-06T19:08:40;12.35;;;7.30;;
50737;SDS011;36703;48.154;17.126;2024-01-06T19:12:42;11.00;;;7.00;;
50737;SDS011;36703;48.154;17.126;2024-01-06T19:16:44;13.88;;;8.23;;
50737;SDS011;36703;48.154;17.126;2024-01-06T19:20:46;12.00;;;7.45;;
50737;SDS011;36703;48.154;17.126;2024-01-06T19:24:48;14.10;;;8.32;;
50737;SDS011;36703;48.154;17.126;2024-01-06T19:28:49;12.77;;;8.18;;
50737;SDS011;36703;48.154;17.126;2024-01-06T19:32:51;12.43;;;8.05;;
50737;SDS011;36703;48.154;17.126;2024-01-06T19:36:52;13.27;;;8.07;;
50737;SDS011;36703;48.154;17.126;2024-01-06T19:40:54;12.35;;;7.97;;
50737;SDS011;36703;48.154;17.126;2024-01-06T19:44:55;11.95;;;7.70;;
50737;SDS011;36703;48.154;17.126;2024-01-06T19:48:57;13.57;;;7.70;;
50737;SDS011;36703;48.154;17.126;2024-01-06T19:52:59;12.20;;;7.15;;
50737;SDS011;36703;48.154;17.126;2024-01-06T19:57:00;12.93;;;7.28;;
50737;SDS011;36703;48.154;17.126;2024-01-06T20:01:02;10.98;;;6.97;;
50737;SDS011;36703;48.154;17.126;2024-01-06T20:05:04;13.23;;;7.78;;
50737;SDS011;36703;48.154;17.126;2024-01-06T20:09:07;12.43;;;8.00;;
50737;SDS011;36703;48.154;17.126;2024-01-06T20:13:10;13.85;;;8.23;;
50737;SDS011;36703;48.154;17.126;2024-01-06T20:17:11;14.73;;;8.73;;
50737;SDS011;36703;48.154;17.126;2024-01-06T20:21:13;14.65;;;9.10;;
50737;SDS011;36703;48.154;17.126;2024-01-06T20:25:15;55.20;;;29.33;;
50737;SDS011;36703;48.154;17.126;2024-01-06T20:29:16;32.90;;;18.70;;
50737;SDS011;36703;48.154;17.126;2024-01-06T20:33:18;16.77;;;10.60;;
50737;SDS011;36703;48.154;17.126;2024-01-06T20:37:19;15.45;;;9.25;;
50737;SDS011;36703;48.154;17.126;2024-01-06T20:41:21;18.95;;;10.25;;
50737;SDS011;36703;48.154;17.126;2024-01-06T20:45:22;15.35;;;9.20;;
50737;SDS011;36703;48.154;17.126;2024-01-06T20:49:24;15.85;;;9.77;;
50737;SDS011;36703;48.154;17.126;2024-01-06T20:53:26;18.95;;;9.93;;
50737;SDS011;36703;48.154;17.126;2024-01-06T20:57:27;17.17;;;9.80;;
50737;SDS011;36703;48.154;17.126;2024-01-06T21:01:29;14.52;;;8.68;;
50737;SDS011;36703;48.154;17.126;2024-01-06T21:05:31;16.95;;;9.13;;
50737;SDS011;36703;48.154;17.126;2024-01-06T21:09:32;15.48;;;9.10;;
50737;SDS011;36703;48.154;17.126;2024-01-06T21:13:34;15.35;;;8.43;;
50737;SDS011;36703;48.154;17.126;2024-01-06T21:17:35;14.55;;;8.23;;
50737;SDS011;36703;48.154;17.126;2024-01-06T21:21:37;13.82;;;8.35;;
50737;SDS011;36703;48.154;17.126;2024-01-06T21:25:39;13.13;;;8.35;;
50737;SDS011;36703;48.154;17.126;2024-01-06T21:29:40;13.77;;;7.60;;
50737;SDS011;36703;48.154;17.126;2024-01-06T21:33:43;12.57;;;7.18;;
50737;SDS011;36703;48.154;17.126;2024-01-06T21:37:48;13.35;;;6.75;;
50737;SDS011;36703;48.154;17.126;2024-01-06T21:41:49;78.82;;;41.88;;
50737;SDS011;36703;48.154;17.126;2024-01-06T21:45:51;29.08;;;17.33;;
50737;SDS011;36703;48.154;17.126;2024-01-06T21:49:52;16.33;;;9.52;;
50737;SDS011;36703;48.154;17.126;2024-01-06T21:57:57;11.57;;;6.80;;
50737;SDS011;36703;48.154;17.126;2024-01-06T22:01:58;13.05;;;7.88;;
50737;SDS011;36703;48.154;17.126;2024-01-06T22:06:00;12.02;;;6.60;;
50737;SDS011;36703;48.154;17.126;2024-01-06T22:14:03;11.00;;;6.50;;
50737;SDS011;36703;48.154;17.126;2024-01-06T22:18:05;13.50;;;7.07;;
50737;SDS011;36703;48.154;17.126;2024-01-06T22:22:07;12.98;;;6.72;;
50737;SDS011;36703;48.154;17.126;2024-01-06T22:34:12;12.65;;;7.07;;
50737;SDS011;36703;48.154;17.126;2024-01-06T22:38:14;11.98;;;6.95;;
50737;SDS011;36703;48.154;17.126;2024-01-06T22:46:17;12.20;;;6.93;;
50737;SDS011;36703;48.154;17.126;2024-01-06T22:50:18;13.43;;;7.07;;
50737;SDS011;36703;48.154;17.126;2024-01-06T22:54:20;11.20;;;6.72;;
50737;SDS011;36703;48.154;17.126;2024-01-06T23:02:23;10.02;;;6.00;;
50737;SDS011;36703;48.154;17.126;2024-01-06T23:06:25;10.30;;;6.38;;
50737;SDS011;36703;48.154;17.126;2024-01-06T23:10:27;11.88;;;6.85;;
50737;SDS011;36703;48.154;17.126;2024-01-06T23:18:30;10.48;;;6.13;;
50737;SDS011;36703;48.154;17.126;2024-01-06T23:22:32;11.35;;;6.03;;
50737;SDS011;36703;48.154;17.126;2024-01-06T23:26:34;12.73;;;6.25;;
50737;SDS011;36703;48.154;17.126;2024-01-06T23:30:36;11.20;;;6.00;;
50737;SDS011;36703;48.154;17.126;2024-01-06T23:34:39;11.18;;;6.30;;
50737;SDS011;36703;48.154;17.126;2024-01-06T23:38:40;11.00;;;6.07;;
50737;SDS011;36703;48.154;17.126;2024-01-06T23:42:43;11.52;;;6.35;;
50737;SDS011;36703;48.154;17.126;2024-01-06T23:46:44;9.68;;;5.65;;
50737;SDS011;36703;48.154;17.126;2024-01-06T23:54:47;11.10;;;5.22;;
50737;SDS011;36703;48.154;17.126;2024-01-06T23:58:49;9.05;;;4.88;;
